Time;durP1;ratioP1;P1;durP2;ratioP2;P2;SDS_P1;SDS_P2;PMS_P1;PMS_P2;Temp;Humidity;BMP_temperature;BMP_pressure;BME280_temperature;BME280_humidity;BME280_pressure;Samples;Min_cycle;Max_cycle;Signal;HPM_P1;HPM_P2
2023/09/22 00:00:32;;;;;;;3.53;3.13;;;24.30;54.80;;;;;;5052038;27;94798;-55
2023/09/22 00:03:00;;;;;;;5.43;3.37;;;24.30;54.80;;;;;;5049835;27;91995;-55
2023/09/22 00:05:28;;;;;;;5.30;3.17;;;24.30;54.80;;;;;;5046382;27;92076;-55
2023/09/22 00:07:56;;;;;;;5.33;2.97;;;24.30;54.80;;;;;;5056125;27;93177;-54
2023/09/22 00:10:24;;;;;;;4.87;2.90;;;24.30;54.80;;;;;;5055996;27;92776;-55
2023/09/22 00:12:54;;;;;;;3.30;2.47;;;24.30;55.40;;;;;;5057042;27;92112;-55
2023/09/22 00:15:22;;;;;;;4.43;2.50;;;24.30;54.80;;;;;;5056386;27;91218;-55
2023/09/22 00:17:50;;;;;;;3.03;2.73;;;24.30;54.80;;;;;;5056813;27;94183;-55
2023/09/22 00:20:18;;;;;;;3.80;2.70;;;24.30;54.80;;;;;;5056496;27;94194;-55
2023/09/22 00:22:46;;;;;;;3.13;2.43;;;24.30;54.80;;;;;;5055925;27;93251;-55
2023/09/22 00:25:16;;;;;;;2.97;2.63;;;24.30;54.80;;;;;;5056670;27;92014;-55
2023/09/22 00:27:45;;;;;;;2.37;1.73;;;24.30;54.80;;;;;;5055048;27;92837;-55
2023/09/22 00:30:14;;;;;;;8.03;2.30;;;24.30;54.80;;;;;;5054698;27;93903;-55
2023/09/22 00:32:42;;;;;;;4.37;2.47;;;24.20;54.80;;;;;;5057162;27;92664;-55
2023/09/22 00:35:11;;;;;;;3.47;1.93;;;24.20;54.70;;;;;;5056406;27;94262;-55
2023/09/22 00:37:40;;;;;;;3.87;2.43;;;24.20;54.80;;;;;;5056914;27;93115;-55
2023/09/22 00:40:09;;;;;;;4.60;2.80;;;24.20;54.80;;;;;;5050024;27;92966;-55
2023/09/22 00:42:37;;;;;;;4.23;2.50;;;24.20;54.80;;;;;;5059164;27;92085;-54
2023/09/22 00:45:08;;;;;;;5.43;2.23;;;24.20;54.80;;;;;;5060321;27;91994;-55
2023/09/22 00:47:36;;;;;;;3.87;2.67;;;24.20;54.80;;;;;;5059394;27;95051;-55
2023/09/22 00:50:05;;;;;;;2.97;2.43;;;24.20;54.70;;;;;;5059754;27;93802;-55
2023/09/22 00:52:33;;;;;;;2.97;2.20;;;24.20;54.70;;;;;;5068940;27;92173;-55
2023/09/22 00:55:01;;;;;;;2.13;1.87;;;24.30;54.80;;;;;;5069387;27;92208;-55
2023/09/22 00:57:29;;;;;;;2.80;1.80;;;24.30;54.80;;;;;;5078370;27;93036;-55
2023/09/22 00:59:57;;;;;;;5.00;1.87;;;24.20;54.70;;;;;;5067954;27;94085;-55
2023/09/22 01:02:29;;;;;;;2.33;1.73;;;24.20;54.70;;;;;;5070045;27;92228;-55
2023/09/22 01:04:57;;;;;;;3.03;1.93;;;24.20;54.70;;;;;;5061879;27;91520;-55
2023/09/22 01:07:25;;;;;;;3.83;2.83;;;24.20;54.70;;;;;;5068453;27;94101;-54
2023/09/22 01:09:53;;;;;;;3.20;2.40;;;24.20;54.60;;;;;;5059211;27;92933;-55
2023/09/22 01:12:21;;;;;;;2.23;2.03;;;24.20;54.60;;;;;;5058631;27;93010;-54
2023/09/22 01:14:49;;;;;;;2.30;2.00;;;24.20;54.60;;;;;;5059361;27;92047;-54
2023/09/22 01:17:18;;;;;;;2.50;1.60;;;24.20;54.60;;;;;;5059657;27;94082;-55
2023/09/22 01:19:48;;;;;;;3.27;1.90;;;24.20;54.60;;;;;;5059901;27;92825;-54
2023/09/22 01:22:18;;;;;;;2.10;1.70;;;24.20;54.60;;;;;;5059371;27;92010;-54
2023/09/22 01:24:46;;;;;;;1.57;1.47;;;24.20;54.60;;;;;;5058913;27;92423;-55
2023/09/22 01:27:15;;;;;;;2.57;1.73;;;24.20;54.60;;;;;;5059591;27;93075;-55
2023/09/22 01:29:43;;;;;;;1.83;1.40;;;24.20;54.60;;;;;;5059623;27;93903;-54
2023/09/22 01:32:11;;;;;;;2.83;1.90;;;24.20;54.60;;;;;;5055887;27;92142;-54
2023/09/22 01:34:39;;;;;;;1.13;1.03;;;24.20;54.60;;;;;;5039455;27;92027;-55
2023/09/22 01:37:07;;;;;;;3.90;1.60;;;24.20;54.60;;;;;;5038148;28;94017;-54
2023/09/22 01:39:38;;;;;;;3.37;1.43;;;24.10;54.50;;;;;;5056482;27;93719;-54
2023/09/22 01:42:08;;;;;;;2.63;1.47;;;24.10;54.50;;;;;;5067765;27;93294;-54
2023/09/22 01:44:36;;;;;;;1.73;1.60;;;24.20;54.60;;;;;;5062827;27;92023;-55
2023/09/22 01:47:04;;;;;;;1.13;1.10;;;24.10;54.50;;;;;;5058996;27;94090;-55
2023/09/22 01:49:32;;;;;;;1.53;1.43;;;24.10;54.50;;;;;;5066040;27;92667;-54
2023/09/22 01:52:01;;;;;;;2.13;1.30;;;24.10;54.50;;;;;;5066834;27;92236;-54
2023/09/22 01:54:29;;;;;;;1.30;1.20;;;24.10;54.50;;;;;;5047231;27;93142;-55
2023/09/22 01:56:58;;;;;;;1.20;1.00;;;24.10;54.50;;;;;;5044342;27;94182;-55
2023/09/22 01:59:26;;;;;;;1.10;0.80;;;24.10;54.50;;;;;;5047460;27;92779;-55
2023/09/22 02:01:54;;;;;;;2.97;1.10;;;24.10;54.50;;;;;;5045059;27;92987;-55
2023/09/22 02:04:22;;;;;;;1.43;1.07;;;24.10;54.50;;;;;;5048063;27;92336;-54
2023/09/22 02:06:51;;;;;;;1.47;1.17;;;24.10;54.50;;;;;;5045129;27;94329;-54
2023/09/22 02:09:19;;;;;;;1.97;1.40;;;24.10;54.50;;;;;;5046960;27;93914;-54
2023/09/22 02:11:47;;;;;;;1.70;1.27;;;24.10;54.50;;;;;;5046045;27;92227;-54
2023/09/22 02:14:17;;;;;;;3.03;1.20;;;24.10;54.50;;;;;;5042983;27;92088;-55
2023/09/22 02:16:45;;;;;;;3.17;1.80;;;24.10;54.50;;;;;;5045294;27;93071;-55
2023/09/22 02:19:13;;;;;;;3.67;2.00;;;24.10;55.20;;;;;;5048055;27;93670;-55
2023/09/22 02:21:41;;;;;;;1.83;1.70;;;24.10;54.50;;;;;;5047811;27;92083;-55
2023/09/22 02:24:09;;;;;;;4.67;2.23;;;24.10;54.50;;;;;;5048395;27;92486;-55
2023/09/22 02:26:38;;;;;;;2.43;1.67;;;24.10;54.60;;;;;;5046658;27;94041;-55
2023/09/22 02:29:06;;;;;;;2.20;1.73;;;24.10;54.50;;;;;;5046376;27;95557;-55
2023/09/22 02:31:35;;;;;;;3.67;1.83;;;24.10;54.50;;;;;;5049186;27;92069;-54
2023/09/22 02:34:03;;;;;;;2.87;2.57;;;24.10;54.50;;;;;;5047819;27;92103;-54
2023/09/22 02:36:32;;;;;;;4.60;2.77;;;24.10;54.50;;;;;;5046769;27;92035;-55
2023/09/22 02:39:00;;;;;;;5.27;2.37;;;24.10;55.20;;;;;;5045576;27;93925;-55
2023/09/22 02:41:28;;;;;;;5.20;2.97;;;24.00;54.40;;;;;;5047116;27;92103;-55
2023/09/22 02:43:56;;;;;;;4.83;3.03;;;24.10;54.50;;;;;;5044020;27;91291;-55
2023/09/22 02:46:24;;;;;;;5.73;3.03;;;24.00;54.40;;;;;;5044569;27;94023;-55
2023/09/22 02:48:54;;;;;;;6.63;2.53;;;24.00;54.40;;;;;;5045928;27;93799;-55
2023/09/22 02:51:22;;;;;;;3.97;2.73;;;24.00;54.40;;;;;;5046590;27;92946;-55
2023/09/22 02:53:50;;;;;;;4.67;3.23;;;24.10;54.50;;;;;;5043793;27;92150;-55
2023/09/22 02:56:18;;;;;;;3.50;3.00;;;24.00;54.30;;;;;;5048007;27;93225;-55
2023/09/22 02:58:46;;;;;;;4.70;3.00;;;24.10;54.40;;;;;;5045858;27;92703;-55
2023/09/22 03:01:15;;;;;;;4.07;2.83;;;24.00;54.30;;;;;;5039656;27;92127;-55
2023/09/22 03:03:43;;;;;;;5.87;3.50;;;24.00;54.30;;;;;;5047221;27;92096;-55
2023/09/22 03:06:13;;;;;;;7.57;3.67;;;24.00;54.30;;;;;;5040178;27;93565;-55
2023/09/22 03:08:41;;;;;;;3.60;2.70;;;24.00;54.30;;;;;;5041619;27;92904;-54
2023/09/22 03:11:09;;;;;;;5.27;2.70;;;24.00;54.30;;;;;;5043525;27;93007;-55
2023/09/22 03:13:41;;;;;;;7.20;3.63;;;24.00;54.30;;;;;;5043981;27;92135;-55
2023/09/22 03:16:09;;;;;;;4.37;2.90;;;24.00;54.20;;;;;;5039549;27;95035;-54
2023/09/22 03:18:37;;;;;;;7.03;3.80;;;24.00;54.20;;;;;;5032673;28;92188;-55
2023/09/22 03:21:05;;;;;;;4.90;3.50;;;24.00;54.20;;;;;;5034250;28;92049;-55
2023/09/22 03:23:34;;;;;;;6.63;4.13;;;24.00;54.20;;;;;;5034751;28;92103;-55
2023/09/22 03:26:04;;;;;;;6.40;3.47;;;24.00;54.20;;;;;;5034234;28;94205;-55
2023/09/22 03:28:32;;;;;;;3.60;3.03;;;24.00;54.30;;;;;;5050449;27;92768;-55
2023/09/22 03:31:01;;;;;;;5.97;3.43;;;23.90;54.20;;;;;;5055237;27;92583;-55
2023/09/22 03:33:29;;;;;;;5.20;3.40;;;24.00;54.20;;;;;;5041179;27;91333;-55
2023/09/22 03:35:57;;;;;;;3.73;2.70;;;24.00;54.20;;;;;;5034275;28;94173;-55
2023/09/22 03:38:28;;;;;;;4.63;3.17;;;23.90;54.20;;;;;;5034330;28;93850;-55
2023/09/22 03:41:00;;;;;;;5.60;3.23;;;24.00;54.20;;;;;;5034118;28;93092;-55
2023/09/22 03:43:28;;;;;;;6.80;3.10;;;23.90;54.80;;;;;;5033797;28;92088;-55
2023/09/22 03:45:56;;;;;;;4.17;2.83;;;23.90;54.20;;;;;;5017736;28;94075;-55
2023/09/22 03:48:25;;;;;;;4.97;3.20;;;23.90;54.20;;;;;;5033298;28;93998;-55
2023/09/22 03:50:53;;;;;;;3.93;2.67;;;23.90;54.20;;;;;;5033679;28;92075;-55
2023/09/22 03:53:22;;;;;;;5.03;2.60;;;23.90;54.20;;;;;;5065132;27;92099;-54
2023/09/22 03:55:51;;;;;;;5.70;2.90;;;23.90;54.20;;;;;;5073509;27;92933;-55
2023/09/22 03:58:20;;;;;;;3.93;2.50;;;23.90;54.20;;;;;;5073281;27;92748;-55
2023/09/22 04:00:48;;;;;;;3.70;2.40;;;23.90;54.20;;;;;;5072724;27;92129;-55
2023/09/22 04:03:18;;;;;;;5.00;2.37;;;23.90;54.20;;;;;;5072647;27;92507;-55
2023/09/22 04:05:47;;;;;;;3.73;2.47;;;23.90;54.20;;;;;;5069447;27;95082;-55
2023/09/22 04:08:16;;;;;;;3.97;2.67;;;23.90;54.20;;;;;;5067710;27;94830;-55
2023/09/22 04:10:44;;;;;;;4.00;2.60;;;23.90;54.20;;;;;;5074890;27;92007;-55
2023/09/22 04:13:12;;;;;;;3.37;2.30;;;23.90;54.20;;;;;;5076836;27;92292;-55
2023/09/22 04:15:42;;;;;;;2.97;2.40;;;23.90;54.20;;;;;;5053146;27;94494;-54
2023/09/22 04:18:10;;;;;;;3.17;1.90;;;23.90;54.20;;;;;;5068364;27;94118;-55
2023/09/22 04:20:43;;;;;;;5.23;2.70;;;23.90;54.20;;;;;;5080392;27;92087;-55
2023/09/22 04:23:11;;;;;;;3.10;1.90;;;23.90;54.20;;;;;;5080877;27;91396;-54
2023/09/22 04:25:39;;;;;;;3.07;2.10;;;23.90;54.20;;;;;;5069760;27;93047;-55
2023/09/22 04:28:11;;;;;;;2.27;1.80;;;23.90;54.20;;;;;;5061316;27;92619;-55
2023/09/22 04:30:40;;;;;;;2.90;2.30;;;23.90;54.20;;;;;;5060131;27;92956;-55
2023/09/22 04:33:11;;;;;;;4.77;2.23;;;23.80;54.10;;;;;;5060778;27;91984;-55
2023/09/22 04:35:40;;;;;;;5.13;2.17;;;23.80;54.10;;;;;;5060121;27;93077;-55
2023/09/22 04:38:10;;;;;;;2.10;1.77;;;23.80;54.10;;;;;;5059195;27;92704;-55
2023/09/22 04:40:39;;;;;;;6.10;1.73;;;23.80;54.10;;;;;;5060574;27;92198;-55
2023/09/22 04:43:07;;;;;;;3.23;1.50;;;23.80;54.10;;;;;;5065252;27;92167;-55
2023/09/22 04:45:40;;;;;;;2.33;1.67;;;23.80;54.70;;;;;;5078621;27;92025;-55
2023/09/22 04:48:10;;;;;;;3.03;1.70;;;23.80;54.10;;;;;;5080103;27;91389;-55
2023/09/22 04:50:38;;;;;;;2.43;1.43;;;23.80;54.10;;;;;;5078460;27;92260;-56
2023/09/22 04:53:07;;;;;;;2.67;1.57;;;23.80;54.10;;;;;;5076949;27;92138;-55
2023/09/22 04:55:35;;;;;;;2.00;1.10;;;23.80;54.10;;;;;;5077482;27;95217;-55
2023/09/22 04:58:05;;;;;;;1.60;1.30;;;23.80;54.10;;;;;;5061939;27;93725;-55
2023/09/22 05:00:34;;;;;;;1.47;1.37;;;23.80;54.10;;;;;;5061137;27;91919;-55
2023/09/22 05:03:02;;;;;;;2.63;1.23;;;23.80;54.10;;;;;;5060690;27;92073;-55
2023/09/22 05:05:32;;;;;;;1.30;1.07;;;23.80;54.10;;;;;;5070633;27;94069;-54
2023/09/22 05:08:00;;;;;;;1.50;0.97;;;23.80;54.10;;;;;;5059923;27;93795;-55
2023/09/22 05:10:29;;;;;;;0.80;0.80;;;23.80;54.10;;;;;;5072360;27;92026;-55
2023/09/22 05:12:56;;;;;;;1.20;0.80;;;23.80;54.10;;;;;;5063755;27;91192;-54
2023/09/22 05:15:29;;;;;;;1.03;0.80;;;23.70;54.00;;;;;;5073968;27;93141;-54
2023/09/22 05:17:57;;;;;;;1.00;0.80;;;23.80;54.10;;;;;;5076626;27;93865;-55
2023/09/22 05:20:25;;;;;;;0.90;0.70;;;23.80;54.00;;;;;;5057619;27;93012;-55
2023/09/22 05:22:55;;;;;;;1.07;0.80;;;23.70;54.00;;;;;;5058892;27;92050;-55
2023/09/22 05:25:23;;;;;;;1.50;1.13;;;23.80;54.00;;;;;;5058687;27;94094;-54
2023/09/22 05:27:51;;;;;;;2.13;1.30;;;23.80;54.00;;;;;;5059397;27;93919;-55
2023/09/22 05:30:21;;;;;;;3.33;0.80;;;23.70;53.90;;;;;;5059473;27;91958;-54
2023/09/22 05:32:50;;;;;;;0.70;0.70;;;23.70;53.90;;;;;;5059792;27;92083;-54
2023/09/22 05:35:18;;;;;;;0.70;0.70;;;23.70;53.90;;;;;;5060063;27;94153;-54
2023/09/22 05:37:46;;;;;;;1.23;1.13;;;23.70;54.00;;;;;;5068128;27;92722;-55
2023/09/22 05:40:16;;;;;;;1.60;1.13;;;23.70;53.90;;;;;;5079654;27;92040;-54
2023/09/22 05:42:44;;;;;;;1.20;0.97;;;23.70;53.90;;;;;;5063948;27;92158;-55
2023/09/22 05:45:13;;;;;;;3.40;0.77;;;23.70;53.90;;;;;;5058470;27;94672;-55
2023/09/22 05:47:41;;;;;;;2.20;0.60;;;23.70;53.90;;;;;;5058348;27;93775;-55
2023/09/22 05:50:12;;;;;;;0.80;0.77;;;23.70;54.50;;;;;;5059347;27;93630;-55
2023/09/22 05:52:40;;;;;;;0.87;0.70;;;23.70;53.90;;;;;;5065914;27;92077;-54
2023/09/22 05:55:12;;;;;;;0.80;0.57;;;23.70;53.90;;;;;;5074806;27;92114;-54
2023/09/22 05:57:42;;;;;;;2.00;0.80;;;23.70;53.90;;;;;;5079278;27;92897;-55
2023/09/22 06:00:15;;;;;;;0.70;0.50;;;23.70;53.90;;;;;;5078841;27;92043;-55
2023/09/22 06:02:48;;;;;;;0.77;0.60;;;23.70;53.80;;;;;;5068895;27;92748;-55
2023/09/22 06:05:18;;;;;;;0.80;0.70;;;23.70;53.90;;;;;;5072370;27;94244;-54
2023/09/22 06:07:46;;;;;;;0.83;0.70;;;23.70;53.80;;;;;;5065616;27;93953;-54
2023/09/22 06:10:14;;;;;;;0.73;0.73;;;23.70;53.80;;;;;;5058820;27;93047;-54
2023/09/22 06:12:44;;;;;;;0.50;0.50;;;23.70;53.80;;;;;;5064810;27;92179;-55
2023/09/22 06:15:13;;;;;;;0.83;0.60;;;23.70;53.80;;;;;;5078676;27;93155;-54
2023/09/22 06:17:41;;;;;;;2.10;0.50;;;23.70;53.80;;;;;;5074629;27;94148;-54
2023/09/22 06:20:13;;;;;;;0.30;0.30;;;23.70;53.70;;;;;;5061957;27;92137;-55
2023/09/22 06:22:43;;;;;;;0.30;0.30;;;23.70;54.40;;;;;;5078996;27;92011;-54
2023/09/22 06:25:13;;;;;;;0.63;0.63;;;23.80;53.80;;;;;;5077984;27;93012;-54
2023/09/22 06:27:43;;;;;;;1.03;0.50;;;23.70;54.20;;;;;;5062506;27;93833;-54
2023/09/22 06:30:12;;;;;;;1.00;0.57;;;23.80;53.60;;;;;;5044746;27;93105;-55
2023/09/22 06:32:42;;;;;;;0.97;0.43;;;23.80;53.60;;;;;;5076840;27;92216;-55
2023/09/22 06:35:10;;;;;;;0.67;0.60;;;23.80;53.60;;;;;;5066935;27;94154;-55
2023/09/22 06:37:41;;;;;;;0.50;0.50;;;23.80;53.60;;;;;;5060754;27;94031;-55
2023/09/22 06:40:12;;;;;;;0.50;0.50;;;23.80;53.60;;;;;;5058313;27;92020;-55
2023/09/22 06:42:41;;;;;;;0.60;0.50;;;23.80;53.60;;;;;;5061557;27;92349;-55
2023/09/22 06:45:11;;;;;;;0.77;0.77;;;23.80;53.60;;;;;;5058055;27;94120;-54
2023/09/22 06:47:41;;;;;;;0.40;0.40;;;23.80;53.60;;;;;;5066245;27;93848;-55
2023/09/22 06:50:11;;;;;;;0.40;0.40;;;23.70;53.50;;;;;;5061954;27;92052;-55
2023/09/22 06:52:40;;;;;;;0.30;0.30;;;23.80;53.60;;;;;;5070723;27;91386;-55
2023/09/22 06:55:09;;;;;;;0.50;0.40;;;23.80;53.50;;;;;;5077962;27;94126;-55
2023/09/22 06:57:40;;;;;;;3.17;0.60;;;23.90;53.60;;;;;;5071736;27;92639;-55
2023/09/22 07:00:18;;;;;;;0.33;0.33;;;23.70;53.70;;;;;;5077312;27;92886;-54
2023/09/22 07:02:47;;;;;;;0.30;0.30;;;23.70;53.50;;;;;;5067584;27;92042;-55
2023/09/22 07:05:16;;;;;;;0.40;0.40;;;23.80;53.50;;;;;;5058376;27;93078;-54
2023/09/22 07:07:44;;;;;;;0.50;0.50;;;23.70;53.40;;;;;;5075761;27;92738;-55
2023/09/22 07:10:13;;;;;;;5.50;0.60;;;23.80;53.50;;;;;;5057902;27;92227;-55
2023/09/22 07:12:41;;;;;;;0.30;0.30;;;23.80;53.40;;;;;;5075431;27;91986;-55
2023/09/22 07:15:11;;;;;;;0.30;0.30;;;23.70;54.10;;;;;;5064592;27;93074;-54
2023/09/22 07:17:41;;;;;;;0.47;0.47;;;23.70;53.40;;;;;;5058312;27;92772;-55
2023/09/22 07:20:12;;;;;;;0.47;0.40;;;23.70;53.40;;;;;;5061958;27;92328;-55
2023/09/22 07:22:41;;;;;;;0.67;0.43;;;23.70;53.40;;;;;;5070661;27;92108;-55
2023/09/22 07:25:09;;;;;;;1.30;0.40;;;23.70;53.30;;;;;;5059509;27;94061;-55
2023/09/22 07:27:39;;;;;;;0.30;0.30;;;23.70;53.30;;;;;;5057025;27;92172;-55
2023/09/22 07:30:10;;;;;;;1.07;0.20;;;23.70;53.30;;;;;;5066448;27;92035;-55
2023/09/22 07:32:40;;;;;;;0.47;0.47;;;23.70;53.30;;;;;;5057690;27;92119;-55
2023/09/22 07:35:09;;;;;;;0.40;0.40;;;23.70;53.30;;;;;;5057179;27;93238;-55
2023/09/22 07:37:37;;;;;;;0.23;0.23;;;23.70;53.30;;;;;;5055913;27;92908;-55
2023/09/22 07:40:08;;;;;;;0.37;0.37;;;23.70;53.30;;;;;;5066620;27;92185;-54
2023/09/22 07:42:39;;;;;;;0.30;0.30;;;23.70;53.30;;;;;;5067981;27;91343;-55
2023/09/22 07:45:08;;;;;;;0.30;0.20;;;23.70;53.30;;;;;;5061966;27;92101;-54
2023/09/22 07:47:37;;;;;;;0.33;0.30;;;23.70;53.30;;;;;;5066760;27;92812;-55
2023/09/22 07:50:07;;;;;;;0.20;0.20;;;23.70;53.30;;;;;;5058837;27;93072;-54
2023/09/22 07:52:35;;;;;;;0.67;0.50;;;23.70;53.20;;;;;;5058594;27;92110;-55
2023/09/22 07:55:05;;;;;;;0.60;0.60;;;23.70;53.20;;;;;;5060177;27;93020;-55
2023/09/22 07:57:33;;;;;;;2.30;0.40;;;23.70;53.20;;;;;;5045425;27;92102;-54
2023/09/22 08:00:03;;;;;;;0.27;0.27;;;23.70;53.70;;;;;;5040499;28;92021;-55
2023/09/22 08:02:31;;;;;;;0.23;0.20;;;23.70;53.10;;;;;;5040637;28;92048;-54
2023/09/22 08:04:59;;;;;;;1.07;0.53;;;23.70;53.10;;;;;;5060503;27;94120;-54
2023/09/22 08:07:29;;;;;;;0.30;0.30;;;23.70;53.10;;;;;;5060980;27;92726;-54
2023/09/22 08:09:57;;;;;;;0.53;0.53;;;23.70;53.10;;;;;;5061363;27;92051;-54
2023/09/22 08:12:25;;;;;;;0.97;0.33;;;23.70;53.10;;;;;;5060121;27;92142;-54
2023/09/22 08:14:53;;;;;;;0.30;0.30;;;23.70;53.10;;;;;;5060372;27;93766;-55
2023/09/22 08:17:25;;;;;;;0.40;0.40;;;23.70;53.00;;;;;;5060696;27;93710;-55
2023/09/22 08:19:53;;;;;;;0.40;0.40;;;23.70;53.00;;;;;;5060288;27;91896;-54
2023/09/22 08:22:21;;;;;;;0.53;0.50;;;23.70;53.00;;;;;;5037303;28;92088;-55
2023/09/22 08:24:51;;;;;;;0.40;0.40;;;23.80;53.10;;;;;;5039872;27;94368;-55
2023/09/22 08:27:19;;;;;;;0.70;0.33;;;23.80;53.10;;;;;;5039497;27;92716;-54
2023/09/22 08:29:50;;;;;;;0.53;0.40;;;23.80;53.10;;;;;;5039798;27;92041;-55
2023/09/22 08:32:18;;;;;;;0.33;0.33;;;23.80;53.00;;;;;;5039302;27;91357;-55
2023/09/22 08:34:46;;;;;;;0.20;0.20;;;23.80;53.00;;;;;;5039293;27;92960;-54
2023/09/22 08:37:14;;;;;;;0.27;0.27;;;23.80;53.00;;;;;;5038320;27;93871;-54
2023/09/22 08:39:42;;;;;;;0.70;0.70;;;23.90;53.00;;;;;;5038709;28;93004;-55
2023/09/22 08:42:12;;;;;;;0.30;0.30;;;23.90;53.00;;;;;;5038903;27;92194;-54
2023/09/22 08:44:40;;;;;;;0.30;0.30;;;23.90;52.90;;;;;;5039701;27;93058;-55
2023/09/22 08:47:08;;;;;;;0.30;0.30;;;23.90;52.90;;;;;;5039068;27;92754;-55
2023/09/22 08:49:36;;;;;;;0.30;0.30;;;23.90;52.90;;;;;;5040232;27;92049;-54
2023/09/22 08:52:04;;;;;;;0.30;0.30;;;23.90;52.90;;;;;;5044210;27;92001;-55
2023/09/22 08:54:32;;;;;;;0.60;0.30;;;23.90;53.00;;;;;;5059637;27;93055;-55
2023/09/22 08:57:00;;;;;;;0.30;0.30;;;23.90;52.90;;;;;;5059972;27;93722;-54
2023/09/22 08:59:30;;;;;;;0.50;0.40;;;23.90;53.00;;;;;;5059930;27;91889;-54
2023/09/22 09:01:58;;;;;;;0.37;0.30;;;23.90;52.90;;;;;;5059889;27;92549;-54
2023/09/22 09:04:31;;;;;;;0.50;0.33;;;23.90;52.90;;;;;;5059265;27;94038;-54
2023/09/22 09:06:59;;;;;;;0.20;0.20;;;23.90;52.90;;;;;;5059089;27;93840;-54
2023/09/22 09:09:27;;;;;;;0.20;0.20;;;23.90;52.90;;;;;;5058933;27;92022;-55
2023/09/22 09:11:59;;;;;;;1.50;0.30;;;23.90;52.90;;;;;;5059177;27;92019;-55
2023/09/22 09:14:28;;;;;;;0.87;0.40;;;23.90;52.90;;;;;;5058785;27;94130;-55
2023/09/22 09:16:58;;;;;;;0.43;0.43;;;23.90;52.90;;;;;;5058532;27;92695;-54
2023/09/22 09:19:27;;;;;;;0.30;0.30;;;23.90;52.90;;;;;;5059061;27;93673;-55
2023/09/22 09:22:09;;;;;;;0.63;0.50;;;23.90;52.90;;;;;;5059084;27;92209;-54
2023/09/22 09:24:38;;;;;;;0.30;0.30;;;23.90;52.90;;;;;;5058211;27;93308;-55
2023/09/22 09:27:17;;;;;;;0.20;0.20;;;23.90;52.90;;;;;;5058812;27;93756;-55
2023/09/22 09:29:46;;;;;;;0.57;0.57;;;23.90;52.90;;;;;;5056085;27;93246;-54
2023/09/22 09:32:26;;;;;;;0.40;0.40;;;23.90;52.80;;;;;;5055808;27;92122;-55
2023/09/22 09:34:54;;;;;;;0.40;0.40;;;23.90;52.80;;;;;;5057891;27;94200;-56
2023/09/22 09:37:23;;;;;;;0.87;0.37;;;24.00;52.90;;;;;;5056800;27;92751;-55
2023/09/22 09:39:52;;;;;;;0.43;0.43;;;24.00;52.80;;;;;;5058955;27;92337;-55
2023/09/22 09:42:22;;;;;;;0.40;0.40;;;24.00;52.90;;;;;;5062248;27;92138;-55
2023/09/22 09:44:51;;;;;;;0.30;0.30;;;24.00;52.80;;;;;;5058543;27;94049;-55
2023/09/22 09:47:23;;;;;;;0.40;0.40;;;24.10;52.80;;;;;;5059193;27;91547;-55
2023/09/22 09:49:58;;;;;;;1.23;0.60;;;24.10;52.80;;;;;;5058916;27;92080;-55
2023/09/22 09:52:34;;;;;;;1.03;0.90;;;24.10;52.80;;;;;;5056354;27;92139;-55
2023/09/22 09:55:12;;;;;;;0.40;0.40;;;24.10;52.80;;;;;;5058477;27;93896;-55
2023/09/22 09:57:43;;;;;;;1.30;0.80;;;24.10;52.80;;;;;;5059233;27;94719;-55
2023/09/22 10:00:13;;;;;;;0.63;0.57;;;24.10;52.80;;;;;;5059702;27;92091;-55
2023/09/22 10:02:43;;;;;;;0.50;0.50;;;24.10;52.70;;;;;;5059074;27;92080;-55
2023/09/22 10:05:14;;;;;;;0.90;0.90;;;24.10;52.70;;;;;;5058754;27;93144;-55
2023/09/22 10:07:45;;;;;;;0.50;0.50;;;23.80;52.50;;;;;;5058237;27;92729;-55
2023/09/22 10:10:14;;;;;;;1.23;0.70;;;24.10;52.70;;;;;;5058697;27;92093;-55
2023/09/22 10:12:43;;;;;;;0.40;0.40;;;24.10;52.80;;;;;;5058760;27;91366;-55
2023/09/22 10:15:11;;;;;;;3.23;0.60;;;24.10;52.70;;;;;;5058347;27;94255;-55
2023/09/22 10:17:39;;;;;;;0.40;0.40;;;24.10;52.70;;;;;;5057937;27;92923;-55
2023/09/22 10:20:10;;;;;;;0.60;0.60;;;24.20;52.80;;;;;;5058211;27;92937;-55
2023/09/22 10:22:40;;;;;;;1.10;0.60;;;24.10;52.70;;;;;;5058405;27;92129;-55
2023/09/22 10:25:21;;;;;;;0.50;0.50;;;24.20;52.80;;;;;;5058382;27;93096;-55
2023/09/22 10:28:03;;;;;;;0.63;0.60;;;24.20;52.80;;;;;;5057060;27;92786;-54
2023/09/22 10:31:02;;;;;;;1.60;0.43;;;24.20;52.80;;;;;;5058817;27;92106;-55
2023/09/22 10:33:32;;;;;;;0.40;0.40;;;24.20;52.80;;;;;;5058667;27;92106;-55
2023/09/22 10:36:01;;;;;;;0.53;0.53;;;24.20;52.80;;;;;;5056229;27;93393;-54
2023/09/22 10:38:30;;;;;;;1.30;0.83;;;24.20;52.80;;;;;;5057423;27;92696;-54
2023/09/22 10:41:05;;;;;;;0.90;0.80;;;24.20;52.80;;;;;;5058611;27;92095;-55
2023/09/22 10:43:36;;;;;;;1.97;0.80;;;24.20;52.80;;;;;;5058310;27;92047;-54
2023/09/22 10:46:08;;;;;;;0.97;0.60;;;24.20;53.40;;;;;;5021628;27;93855;-54
2023/09/22 10:48:37;;;;;;;2.33;0.60;;;24.20;52.80;;;;;;5057435;27;94722;-55
2023/09/22 10:51:06;;;;;;;0.70;0.60;;;24.20;52.80;;;;;;5058294;27;92410;-54
2023/09/22 10:53:39;;;;;;;0.60;0.43;;;24.30;52.80;;;;;;5056786;27;92733;-55
2023/09/22 10:56:07;;;;;;;1.00;0.73;;;24.30;53.40;;;;;;5058103;27;93079;-55
2023/09/22 10:58:35;;;;;;;1.33;0.90;;;24.40;52.90;;;;;;5057747;27;93789;-54
2023/09/22 11:01:05;;;;;;;1.70;0.57;;;24.30;52.80;;;;;;5058725;27;92117;-55
2023/09/22 11:03:35;;;;;;;1.90;0.57;;;24.40;52.80;;;;;;5057908;27;91610;-54
2023/09/22 11:06:06;;;;;;;1.10;0.73;;;24.40;52.80;;;;;;5056835;27;94317;-55
2023/09/22 11:08:46;;;;;;;0.83;0.70;;;24.40;52.80;;;;;;5057221;27;93071;-55
2023/09/22 11:11:16;;;;;;;1.03;0.50;;;24.40;52.80;;;;;;5057456;27;92891;-55
2023/09/22 11:13:51;;;;;;;0.73;0.60;;;24.40;52.80;;;;;;5057676;27;92088;-55
2023/09/22 11:16:19;;;;;;;1.37;0.57;;;24.40;52.80;;;;;;5057552;27;94766;-55
2023/09/22 11:18:48;;;;;;;0.43;0.43;;;24.40;52.80;;;;;;5057391;27;92832;-55
2023/09/22 11:21:17;;;;;;;1.80;0.60;;;24.40;52.80;;;;;;5057866;27;92228;-56
2023/09/22 11:23:47;;;;;;;0.80;0.53;;;24.40;52.80;;;;;;5055488;27;92058;-55
2023/09/22 11:26:15;;;;;;;2.87;0.70;;;24.40;52.80;;;;;;5047861;27;93316;-55
2023/09/22 11:28:44;;;;;;;0.50;0.50;;;24.40;52.80;;;;;;5062338;27;93681;-55
2023/09/22 11:31:14;;;;;;;0.60;0.57;;;24.50;52.80;;;;;;5060910;27;92034;-55
2023/09/22 11:33:43;;;;;;;0.70;0.50;;;24.50;52.80;;;;;;5057018;27;92007;-55
2023/09/22 11:36:11;;;;;;;0.60;0.60;;;24.40;52.80;;;;;;5056852;27;94020;-55
2023/09/22 11:38:40;;;;;;;1.73;0.53;;;24.50;52.80;;;;;;5057043;27;94772;-56
2023/09/22 11:41:11;;;;;;;0.40;0.40;;;24.50;52.80;;;;;;5057334;27;91912;-55
2023/09/22 11:43:42;;;;;;;1.30;1.20;;;24.50;53.50;;;;;;5057175;27;92158;-55
2023/09/22 11:46:12;;;;;;;0.80;0.80;;;24.50;52.80;;;;;;5056973;27;93241;-55
2023/09/22 11:48:53;;;;;;;0.97;0.57;;;24.50;52.80;;;;;;5057163;27;92598;-55
2023/09/22 11:51:21;;;;;;;1.30;0.63;;;24.50;52.80;;;;;;5057380;27;92118;-55
2023/09/22 11:53:49;;;;;;;0.50;0.50;;;24.50;52.80;;;;;;5054224;27;91281;-55
2023/09/22 11:56:18;;;;;;;1.33;0.60;;;24.50;52.80;;;;;;5057439;27;93125;-55
2023/09/22 11:58:46;;;;;;;0.40;0.40;;;24.50;52.80;;;;;;5057490;27;92734;-56
2023/09/22 12:01:14;;;;;;;0.60;0.60;;;24.50;52.80;;;;;;5047377;27;94072;-55
2023/09/22 12:03:43;;;;;;;1.97;0.50;;;24.50;52.80;;;;;;5036573;27;92381;-55
2023/09/22 12:06:13;;;;;;;0.40;0.40;;;24.50;52.80;;;;;;5035507;28;94298;-55
2023/09/22 12:08:41;;;;;;;0.30;0.30;;;24.60;52.90;;;;;;5035561;28;92835;-55
2023/09/22 12:11:09;;;;;;;0.70;0.60;;;24.60;52.90;;;;;;5035261;28;92062;-55
2023/09/22 12:13:40;;;;;;;1.23;0.50;;;24.50;52.80;;;;;;5035944;27;92133;-55
2023/09/22 12:16:08;;;;;;;1.10;0.60;;;24.50;52.80;;;;;;5035774;27;93068;-55
2023/09/22 12:18:36;;;;;;;1.50;0.40;;;24.50;52.80;;;;;;5036410;27;92789;-55
2023/09/22 12:21:04;;;;;;;0.67;0.63;;;24.60;52.90;;;;;;5035741;27;92101;-55
2023/09/22 12:23:33;;;;;;;0.57;0.50;;;24.50;52.70;;;;;;5036386;27;92857;-55
2023/09/22 12:26:01;;;;;;;0.57;0.50;;;24.60;52.90;;;;;;5035620;27;95080;-55
2023/09/22 12:28:29;;;;;;;1.60;0.80;;;24.60;52.90;;;;;;5036815;27;94722;-55
2023/09/22 12:30:58;;;;;;;0.50;0.50;;;24.50;52.80;;;;;;5036095;27;92054;-55
2023/09/22 12:33:27;;;;;;;3.43;0.60;;;24.50;52.80;;;;;;5037239;28;92067;-55
2023/09/22 12:35:55;;;;;;;0.40;0.40;;;24.50;52.70;;;;;;5039610;28;94237;-55
2023/09/22 12:38:23;;;;;;;0.90;0.70;;;24.50;52.80;;;;;;5039953;28;93837;-56
2023/09/22 12:40:51;;;;;;;0.53;0.53;;;24.50;52.80;;;;;;5039677;28;91991;-55
2023/09/22 12:43:19;;;;;;;1.83;0.50;;;24.50;52.80;;;;;;5040559;27;91204;-55
2023/09/22 12:45:47;;;;;;;0.70;0.70;;;24.50;52.70;;;;;;5039523;28;93892;-55
2023/09/22 12:48:17;;;;;;;0.40;0.40;;;24.50;52.70;;;;;;5039518;27;92566;-55
2023/09/22 12:50:46;;;;;;;0.50;0.50;;;24.50;52.80;;;;;;5038734;28;93214;-55
2023/09/22 12:53:14;;;;;;;5.33;0.73;;;24.50;52.70;;;;;;5049943;27;92140;-55
2023/09/22 12:55:42;;;;;;;1.23;0.67;;;24.50;52.80;;;;;;5057671;27;93030;-55
2023/09/22 12:58:10;;;;;;;0.60;0.57;;;24.50;52.70;;;;;;5062328;27;93315;-55